Time;durP1;ratioP1;P1;durP2;ratioP2;P2;SDS_P1;SDS_P2;PMS_P1;PMS_P2;Temp;Humidity;BMP_temperature;BMP_pressure;BME280_temperature;BME280_humidity;BME280_pressure;Samples;Min_cycle;Max_cycle;Signal;HPM_P1;HPM_P2
2022/11/07 00:01:54;;;;;;;;;;;;;;;20.90;28.18;98266.00;4961580;28;794;-79
2022/11/07 00:04:19;;;;;;;;;;;;;;;21.27;27.82;98262.81;4980005;28;881;-79
2022/11/07 00:06:45;;;;;;;;;;;;;;;21.48;27.48;98263.63;4979227;28;1381;-79
2022/11/07 00:09:10;;;;;;;;;;;;;;;21.35;27.60;98257.03;4978631;28;752;-79
2022/11/07 00:11:36;;;;;;;;;;;;;;;21.01;28.15;98249.63;4978581;28;799;-78
2022/11/07 00:14:01;;;;;;;;;;;;;;;21.01;28.05;98256.06;4995117;28;1204;-79
2022/11/07 00:16:28;;;;;;;;;;;;;;;20.97;28.20;98249.69;4978564;28;704;-79
2022/11/07 00:18:53;;;;;;;;;;;;;;;20.92;28.09;98252.22;4994513;28;1918;-78
2022/11/07 00:21:19;;;;;;;;;;;;;;;21.16;27.79;98256.59;4978266;28;1660;-78
2022/11/07 00:23:44;;;;;;;;;;;;;;;21.29;27.56;98260.34;4978440;28;716;-79
2022/11/07 00:26:10;;;;;;;;;;;;;;;21.49;27.35;98257.50;4976782;28;1361;-78
2022/11/07 00:28:36;;;;;;;;;;;;;;;21.20;27.51;98262.19;4978388;28;1234;-78
2022/11/07 00:31:02;;;;;;;;;;;;;;;21.08;28.06;98260.78;4978173;28;795;-79
2022/11/07 00:33:27;;;;;;;;;;;;;;;20.98;27.99;98261.78;4978190;28;787;-78
2022/11/07 00:35:53;;;;;;;;;;;;;;;21.08;28.12;98266.44;4978090;28;771;-78
2022/11/07 00:38:18;;;;;;;;;;;;;;;21.28;27.60;98263.59;4996421;28;1911;-78
2022/11/07 00:40:52;;;;;;;;;;;;;;;21.47;27.60;98264.88;4996070;28;1526;-78
2022/11/07 00:43:17;;;;;;;;;;;;;;;21.16;27.79;98262.25;4995775;28;1567;-78
2022/11/07 00:45:43;;;;;;;;;;;;;;;21.21;27.71;98263.78;4996333;28;793;-78
2022/11/07 00:48:08;;;;;;;;;;;;;;;21.13;27.90;98268.75;4996605;28;815;-78
2022/11/07 00:50:34;;;;;;;;;;;;;;;21.04;28.04;98269.38;4996573;28;789;-78
2022/11/07 00:52:59;;;;;;;;;;;;;;;21.35;27.50;98268.34;4996472;28;869;-78
2022/11/07 00:55:25;;;;;;;;;;;;;;;21.59;27.25;98267.00;4960423;28;1232;-78
2022/11/07 00:57:50;;;;;;;;;;;;;;;21.21;27.49;98258.91;4975703;28;1985;-78
2022/11/07 01:00:16;;;;;;;;;;;;;;;21.07;28.22;98259.19;4975612;28;1400;-79
2022/11/07 01:02:41;;;;;;;;;;;;;;;20.94;28.09;98266.75;4976808;28;874;-78
2022/11/07 01:05:10;;;;;;;;;;;;;;;21.16;28.20;98273.56;4976511;28;944;-78
2022/11/07 01:07:36;;;;;;;;;;;;;;;21.35;27.66;98265.50;4959822;28;768;-78
2022/11/07 01:10:02;;;;;;;;;;;;;;;21.49;27.32;98273.69;4976710;28;940;-79
2022/11/07 01:12:27;;;;;;;;;;;;;;;20.94;28.14;98266.75;4959263;28;1593;-79
2022/11/07 01:14:53;;;;;;;;;;;;;;;21.03;28.18;98258.47;4976901;28;870;-79
2022/11/07 01:17:18;;;;;;;;;;;;;;;21.09;27.98;98262.41;4976657;28;852;-78
2022/11/07 01:19:44;;;;;;;;;;;;;;;21.33;27.88;98252.59;4928146;28;1919;-79
2022/11/07 01:22:10;;;;;;;;;;;;;;;21.37;27.53;98257.41;4976787;28;929;-78
2022/11/07 01:24:35;;;;;;;;;;;;;;;21.32;27.52;98253.84;4960518;28;775;-79
2022/11/07 01:27:01;;;;;;;;;;;;;;;21.03;28.34;98258.47;4976892;28;1499;-78
2022/11/07 01:29:26;;;;;;;;;;;;;;;21.14;28.02;98259.06;4993370;28;803;-79
2022/11/07 01:31:52;;;;;;;;;;;;;;;20.93;28.31;98259.47;4993306;28;1327;-79
2022/11/07 01:34:17;;;;;;;;;;;;;;;21.17;28.13;98249.69;4977170;28;732;-78
2022/11/07 01:36:43;;;;;;;;;;;;;;;21.33;27.86;98265.97;4993724;28;878;-78
2022/11/07 01:39:08;;;;;;;;;;;;;;;21.56;27.31;98256.56;4978887;28;1977;-78
2022/11/07 01:41:34;;;;;;;;;;;;;;;21.10;28.20;98264.00;4992589;28;1546;-78
2022/11/07 01:44:01;;;;;;;;;;;;;;;21.10;28.08;98275.31;4977185;28;874;-78
2022/11/07 01:46:33;;;;;;;;;;;;;;;21.07;28.10;98270.50;4978526;28;850;-78
2022/11/07 01:49:17;;;;;;;;;;;;;;;21.18;28.07;98265.44;4978224;28;866;-79
2022/11/07 01:51:44;;;;;;;;;;;;;;;21.52;27.49;98261.50;4978168;28;826;-78
2022/11/07 01:54:10;;;;;;;;;;;;;;;21.41;27.74;98255.28;4977557;28;1425;-79
2022/11/07 01:56:36;;;;;;;;;;;;;;;21.28;27.58;98264.41;4976845;28;1534;-78
2022/11/07 01:59:01;;;;;;;;;;;;;;;21.33;27.83;98268.78;4976735;28;1899;-78
2022/11/07 02:01:27;;;;;;;;;;;;;;;21.05;28.09;98259.63;4976965;28;696;-78
2022/11/07 02:03:52;;;;;;;;;;;;;;;20.94;28.48;98258.25;4978131;28;735;-78
2022/11/07 02:06:47;;;;;;;;;;;;;;;21.27;27.77;98259.97;4976762;28;1132;-78
2022/11/07 02:09:13;;;;;;;;;;;;;;;21.39;27.45;98252.88;4956748;28;1039;-78
2022/11/07 02:11:38;;;;;;;;;;;;;;;21.20;27.78;98260.16;4955891;28;1354;-79
2022/11/07 02:14:04;;;;;;;;;;;;;;;20.99;28.14;98260.59;4940658;29;1121;-79
2022/11/07 02:16:31;;;;;;;;;;;;;;;20.83;28.49;98250.00;4956715;28;740;-79
2022/11/07 02:22:34;;;;;;;;;;;;;;;21.38;27.73;98253.31;4960506;29;609;-78
2022/11/07 02:25:00;;;;;;;;;;;;;;;21.33;27.99;98252.59;4960330;29;839;-79
2022/11/07 02:27:27;;;;;;;;;;;;;;;21.15;27.87;98255.00;4959350;28;1525;-78
2022/11/07 02:29:54;;;;;;;;;;;;;;;21.02;28.00;98256.88;4960193;29;803;-79
2022/11/07 02:32:20;;;;;;;;;;;;;;;20.92;28.16;98257.88;4944053;29;961;-78
2022/11/07 02:34:54;;;;;;;;;;;;;;;21.31;28.03;98257.13;4960031;29;819;-77
2022/11/07 02:37:21;;;;;;;;;;;;;;;21.54;27.44;98259.81;4959990;28;911;-79
2022/11/07 02:39:46;;;;;;;;;;;;;;;21.43;27.44;98255.66;4944004;29;1903;-78
2022/11/07 02:42:12;;;;;;;;;;;;;;;21.32;27.59;98253.03;4959316;29;1592;-78
2022/11/07 02:44:37;;;;;;;;;;;;;;;21.12;27.81;98267.16;4961903;28;913;-78
2022/11/07 02:50:38;;;;;;;;;;;;;;;21.35;27.59;98257.84;4981314;28;617;-79
2022/11/07 02:53:04;;;;;;;;;;;;;;;21.54;27.41;98264.69;4979123;28;932;-79
2022/11/07 02:55:29;;;;;;;;;;;;;;;21.25;27.63;98265.28;4975659;28;1391;-78
2022/11/07 03:01:30;;;;;;;;;;;;;;;20.95;28.31;98262.69;4962310;28;1531;-79
2022/11/07 03:03:55;;;;;;;;;;;;;;;21.20;28.12;98273.50;4960717;29;1283;-79
2022/11/07 03:06:22;;;;;;;;;;;;;;;21.38;27.86;98261.81;4960608;29;770;-78
2022/11/07 03:08:47;;;;;;;;;;;;;;;21.28;27.64;98264.41;4960450;29;763;-78
2022/11/07 03:11:13;;;;;;;;;;;;;;;21.08;27.91;98272.91;4976567;28;782;-78
2022/11/07 03:13:38;;;;;;;;;;;;;;;21.00;28.09;98259.34;4961844;28;771;-78
2022/11/07 03:16:04;;;;;;;;;;;;;;;20.95;28.30;98269.13;4953098;28;1496;-78
2022/11/07 03:18:30;;;;;;;;;;;;;;;21.24;27.96;98268.53;4980317;28;1970;-78
2022/11/07 03:20:55;;;;;;;;;;;;;;;21.37;27.68;98271.56;4979541;28;745;-78
2022/11/07 03:23:21;;;;;;;;;;;;;;;21.63;27.21;98267.72;4979513;28;726;-78
2022/11/07 03:25:46;;;;;;;;;;;;;;;21.30;27.62;98276.13;4979381;28;1116;-79
2022/11/07 03:28:11;;;;;;;;;;;;;;;20.99;28.49;98277.56;4995348;28;977;-79
2022/11/07 03:30:37;;;;;;;;;;;;;;;20.99;28.25;98280.38;4968327;28;1503;-78
2022/11/07 03:33:02;;;;;;;;;;;;;;;21.29;27.87;98282.19;4960595;29;744;-79
2022/11/07 03:35:28;;;;;;;;;;;;;;;21.32;27.81;98282.16;4960404;29;1259;-79
2022/11/07 03:37:53;;;;;;;;;;;;;;;21.34;27.71;98290.19;4959658;29;1903;-79
2022/11/07 03:40:19;;;;;;;;;;;;;;;21.16;28.35;98284.88;4960444;29;1113;-78
2022/11/07 03:42:44;;;;;;;;;;;;;;;21.04;28.07;98288.38;4959846;29;975;-78
2022/11/07 03:45:10;;;;;;;;;;;;;;;21.10;27.96;98280.97;4971053;28;1349;-78
2022/11/07 03:47:36;;;;;;;;;;;;;;;21.13;28.11;98279.28;4979100;28;1140;-78
2022/11/07 03:50:02;;;;;;;;;;;;;;;21.43;27.57;98281.91;4978959;28;1484;-79
2022/11/07 03:52:27;;;;;;;;;;;;;;;21.33;27.94;98278.06;4979219;28;1136;-78
2022/11/07 03:54:53;;;;;;;;;;;;;;;21.51;27.85;98274.88;4980161;28;795;-77
2022/11/07 03:57:19;;;;;;;;;;;;;;;21.07;28.17;98276.97;4980122;28;712;-78
2022/11/07 03:59:44;;;;;;;;;;;;;;;20.91;28.76;98279.72;4977622;28;1965;-78
2022/11/07 04:02:09;;;;;;;;;;;;;;;20.94;28.75;98283.72;4979619;28;732;-78
2022/11/07 04:04:35;;;;;;;;;;;;;;;20.91;28.74;98270.44;4978471;28;819;-78
2022/11/07 04:07:00;;;;;;;;;;;;;;;21.05;28.40;98276.63;4979886;28;775;-78
2022/11/07 04:09:26;;;;;;;;;;;;;;;21.27;28.17;98271.31;4980076;28;798;-78
2022/11/07 04:17:19;;;;;;;;;;;;;;;21.25;28.22;98276.63;4979542;28;783;-78
2022/11/07 04:19:48;;;;;;;;;;;;;;;21.45;27.69;98272.97;4979580;28;1922;-78
2022/11/07 04:22:14;;;;;;;;;;;;;;;21.45;27.84;98276.63;4978347;28;842;-78
2022/11/07 04:24:40;;;;;;;;;;;;;;;21.27;28.10;98273.34;4978435;28;859;-78
2022/11/07 04:29:51;;;;;;;;;;;;;;;20.87;28.73;98278.19;4962409;28;1612;-78
2022/11/07 04:32:16;;;;;;;;;;;;;;;21.31;27.96;98277.72;4976719;28;1323;-77
2022/11/07 04:34:42;;;;;;;;;;;;;;;21.43;27.88;98272.63;4938469;29;867;-78
2022/11/07 04:37:07;;;;;;;;;;;;;;;21.39;27.75;98277.56;4907033;29;1499;-78
2022/11/07 04:39:32;;;;;;;;;;;;;;;21.24;27.95;98283.53;4904323;29;1972;-79
2022/11/07 04:41:58;;;;;;;;;;;;;;;21.17;28.33;98275.16;4918825;29;888;-78
2022/11/07 04:44:23;;;;;;;;;;;;;;;21.16;28.13;98279.22;4888293;29;1149;-78
2022/11/07 04:46:49;;;;;;;;;;;;;;;20.89;28.57;98281.41;4921959;29;1669;-78
2022/11/07 04:49:14;;;;;;;;;;;;;;;21.13;28.27;98280.09;4922578;29;886;-78
2022/11/07 04:51:40;;;;;;;;;;;;;;;21.43;27.64;98270.59;4906459;29;873;-79
2022/11/07 04:54:05;;;;;;;;;;;;;;;21.30;27.83;98273.31;4906785;29;887;-78
2022/11/07 04:56:31;;;;;;;;;;;;;;;21.10;28.39;98280.97;4922239;29;760;-78
2022/11/07 04:58:56;;;;;;;;;;;;;;;20.97;28.56;98286.47;4938865;29;1922;-78
2022/11/07 05:01:22;;;;;;;;;;;;;;;21.21;28.19;98286.41;4957553;29;951;-78
2022/11/07 05:03:47;;;;;;;;;;;;;;;21.44;28.06;98285.53;4925665;29;1239;-78
2022/11/07 05:06:12;;;;;;;;;;;;;;;21.43;27.85;98281.13;4966906;28;916;-78
2022/11/07 05:08:38;;;;;;;;;;;;;;;21.24;28.05;98286.34;4977300;28;906;-79
2022/11/07 05:11:03;;;;;;;;;;;;;;;21.30;28.05;98283.84;4978986;28;760;-78
2022/11/07 05:13:29;;;;;;;;;;;;;;;21.14;28.33;98281.69;4977561;28;925;-78
2022/11/07 05:15:54;;;;;;;;;;;;;;;20.93;28.46;98282.91;4978078;28;739;-79
2022/11/07 05:18:23;;;;;;;;;;;;;;;21.25;28.22;98287.94;4976509;28;1902;-79
2022/11/07 05:20:49;;;;;;;;;;;;;;;21.34;28.23;98284.53;4955936;29;901;-78
2022/11/07 05:23:16;;;;;;;;;;;;;;;21.27;28.26;98279.78;4940846;29;842;-79
2022/11/07 05:25:42;;;;;;;;;;;;;;;21.14;28.61;98276.03;4941009;29;916;-78
2022/11/07 05:28:08;;;;;;;;;;;;;;;21.12;28.31;98294.66;4940004;29;1119;-78
2022/11/07 05:30:36;;;;;;;;;;;;;;;21.08;28.38;98286.25;4938634;29;1163;-78
2022/11/07 05:33:01;;;;;;;;;;;;;;;21.43;27.92;98286.78;4915007;29;1289;-78
2022/11/07 05:35:27;;;;;;;;;;;;;;;21.51;27.76;98294.69;4929106;29;1263;-78
2022/11/07 05:37:52;;;;;;;;;;;;;;;21.22;28.32;98293.66;4936583;29;1910;-78
2022/11/07 05:40:18;;;;;;;;;;;;;;;21.30;28.15;98300.81;4930048;29;1397;-78
2022/11/07 05:42:43;;;;;;;;;;;;;;;21.09;28.31;98313.34;4929535;29;1227;-78
2022/11/07 05:45:09;;;;;;;;;;;;;;;20.80;29.00;98313.84;4931119;29;1370;-78
2022/11/07 05:47:34;;;;;;;;;;;;;;;20.99;29.02;98320.00;4914121;29;1296;-77
2022/11/07 05:50:00;;;;;;;;;;;;;;;21.41;28.12;98315.53;4945905;28;1235;-78
2022/11/07 05:52:25;;;;;;;;;;;;;;;21.30;28.45;98318.59;4956127;28;1354;-78
2022/11/07 05:54:51;;;;;;;;;;;;;;;21.31;28.33;98319.38;4977525;28;1271;-78
2022/11/07 05:57:16;;;;;;;;;;;;;;;21.12;28.62;98318.09;4972423;28;1300;-78
2022/11/07 05:59:42;;;;;;;;;;;;;;;21.11;28.63;98318.53;4953903;28;1918;-79
2022/11/07 06:02:07;;;;;;;;;;;;;;;21.21;28.42;98326.03;4970175;28;1226;-77
2022/11/07 06:04:32;;;;;;;;;;;;;;;21.26;28.28;98323.50;4973179;28;1186;-78
2022/11/07 06:06:58;;;;;;;;;;;;;;;21.49;27.90;98336.00;4970224;28;1345;-78
2022/11/07 06:09:23;;;;;;;;;;;;;;;21.07;28.40;98338.41;4969805;28;1262;-78
2022/11/07 06:11:49;;;;;;;;;;;;;;;21.12;28.71;98337.91;4976705;28;1330;-78
2022/11/07 06:14:14;;;;;;;;;;;;;;;21.21;28.60;98343.81;4981724;28;918;-77
2022/11/07 06:16:40;;;;;;;;;;;;;;;21.13;28.35;98348.00;4980040;28;802;-77
2022/11/07 06:19:05;;;;;;;;;;;;;;;21.42;28.32;98358.78;4979255;28;1977;-77
2022/11/07 06:21:31;;;;;;;;;;;;;;;21.31;28.15;98354.16;4970335;28;1348;-78
2022/11/07 06:23:56;;;;;;;;;;;;;;;21.56;27.93;98350.03;4970394;28;1238;-78
2022/11/07 06:26:22;;;;;;;;;;;;;;;21.57;27.99;98357.28;4969328;28;1255;-77
2022/11/07 06:28:47;;;;;;;;;;;;;;;21.35;28.41;98351.25;4970376;28;1323;-78
2022/11/07 06:31:13;;;;;;;;;;;;;;;20.99;28.89;98353.94;4977314;28;1254;-78
2022/11/07 06:33:38;;;;;;;;;;;;;;;20.98;28.91;98353.13;4972423;28;1257;-77
2022/11/07 06:36:05;;;;;;;;;;;;;;;20.85;29.01;98359.84;4976608;28;1278;-78
2022/11/07 06:38:30;;;;;;;;;;;;;;;21.29;28.45;98362.22;4977525;28;1963;-78
2022/11/07 06:41:02;;;;;;;;;;;;;;;21.31;28.67;98354.16;4961944;28;771;-78
2022/11/07 06:43:27;;;;;;;;;;;;;;;21.28;28.55;98360.63;4967573;28;1263;-78
2022/11/07 06:45:53;;;;;;;;;;;;;;;21.15;28.43;98362.53;4966882;28;1270;-77
2022/11/07 06:48:18;;;;;;;;;;;;;;;21.28;28.18;98359.84;4960887;28;819;-78
2022/11/07 06:50:44;;;;;;;;;;;;;;;21.02;28.71;98370.03;4961918;28;732;-79
2022/11/07 06:53:10;;;;;;;;;;;;;;;21.49;28.33;98369.97;4962483;29;794;-78
2022/11/07 06:55:35;;;;;;;;;;;;;;;21.30;28.42;98369.53;4960812;29;732;-78
2022/11/07 06:58:01;;;;;;;;;;;;;;;21.54;28.21;98370.25;4960773;29;1906;-78
2022/11/07 07:04:02;;;;;;;;;;;;;;;20.98;28.73;98374.94;4961572;28;645;-77
2022/11/07 07:06:27;;;;;;;;;;;;;;;21.16;28.62;98375.44;4959019;29;1366;-77
2022/11/07 07:08:53;;;;;;;;;;;;;;;21.41;28.24;98368.53;4959380;29;795;-78
2022/11/07 07:11:21;;;;;;;;;;;;;;;21.45;28.25;98374.91;4943365;29;838;-77
2022/11/07 07:13:47;;;;;;;;;;;;;;;21.12;28.70;98386.00;4959332;29;759;-78
2022/11/07 07:16:12;;;;;;;;;;;;;;;21.05;28.74;98386.16;4959258;28;823;-77
2022/11/07 07:18:38;;;;;;;;;;;;;;;21.21;28.31;98383.44;4959152;29;1895;-78
2022/11/07 07:21:10;;;;;;;;;;;;;;;21.49;28.07;98381.28;4943215;29;811;-79
2022/11/07 07:23:36;;;;;;;;;;;;;;;21.61;27.85;98377.81;4943277;29;879;-77
2022/11/07 07:26:02;;;;;;;;;;;;;;;21.55;27.93;98373.88;4959325;28;1120;-78
2022/11/07 07:28:28;;;;;;;;;;;;;;;21.31;28.47;98371.13;4943139;29;1047;-78
2022/11/07 07:30:53;;;;;;;;;;;;;;;21.06;28.42;98382.88;4943050;29;788;-78
2022/11/07 07:33:19;;;;;;;;;;;;;;;21.13;28.82;98379.13;4959299;29;768;-78
2022/11/07 07:35:45;;;;;;;;;;;;;;;21.43;28.15;98372.50;4943307;29;836;-78
2022/11/07 07:38:10;;;;;;;;;;;;;;;21.42;28.05;98368.09;4939989;29;2348;-77
2022/11/07 07:40:36;;;;;;;;;;;;;;;21.21;28.40;98372.09;4976036;28;692;-77
2022/11/07 07:43:01;;;;;;;;;;;;;;;21.09;28.57;98381.25;4960058;29;736;-78
2022/11/07 07:45:26;;;;;;;;;;;;;;;20.85;28.73;98388.13;4961029;28;990;-77
2022/11/07 07:47:52;;;;;;;;;;;;;;;21.06;28.41;98387.75;4959649;29;826;-78
2022/11/07 07:50:17;;;;;;;;;;;;;;;21.47;28.43;98378.09;4959804;29;740;-78
2022/11/07 07:52:43;;;;;;;;;;;;;;;21.51;27.99;98378.84;4960824;29;744;-78
2022/11/07 07:58:44;;;;;;;;;;;;;;;21.13;28.78;98386.81;4960716;29;1968;-78
2022/11/07 08:01:10;;;;;;;;;;;;;;;21.11;28.70;98373.09;4959562;29;752;-78
2022/11/07 08:03:36;;;;;;;;;;;;;;;21.08;28.51;98379.63;4959472;29;728;-78
2022/11/07 08:06:01;;;;;;;;;;;;;;;21.35;28.63;98373.06;4959497;29;780;-77
2022/11/07 08:08:27;;;;;;;;;;;;;;;21.29;28.24;98367.88;4942519;29;866;-78
2022/11/07 08:10:55;;;;;;;;;;;;;;;21.40;28.41;98372.56;4959132;29;894;-78
2022/11/07 08:13:21;;;;;;;;;;;;;;;21.27;28.62;98387.34;4939268;29;963;-78
2022/11/07 08:15:46;;;;;;;;;;;;;;;21.25;28.59;98389.81;4955625;29;826;-77
2022/11/07 08:18:12;;;;;;;;;;;;;;;20.93;28.77;98389.59;4954791;29;1907;-78
2022/11/07 08:20:37;;;;;;;;;;;;;;;20.86;29.30;98386.91;4939279;29;771;-78
2022/11/07 08:26:38;;;;;;;;;;;;;;;21.43;28.15;98388.69;4938909;29;762;-77
2022/11/07 08:29:03;;;;;;;;;;;;;;;21.14;28.71;98389.22;4939073;29;1315;-78
2022/11/07 08:31:29;;;;;;;;;;;;;;;21.07;28.63;98392.16;4938670;29;782;-78
2022/11/07 08:33:57;;;;;;;;;;;;;;;20.98;28.69;98394.75;4954941;29;866;-78
2022/11/07 08:36:23;;;;;;;;;;;;;;;20.97;29.18;98393.97;4954946;29;775;-78
2022/11/07 08:38:48;;;;;;;;;;;;;;;21.22;28.50;98396.34;4938826;29;1906;-77
2022/11/07 08:41:14;;;;;;;;;;;;;;;21.53;28.00;98384.84;4954593;29;752;-77
2022/11/07 08:43:39;;;;;;;;;;;;;;;21.19;28.40;98391.56;4929380;29;921;-78
2022/11/07 08:46:04;;;;;;;;;;;;;;;21.17;28.60;98391.19;4960218;29;763;-77
2022/11/07 08:48:30;;;;;;;;;;;;;;;21.26;28.26;98388.59;4958810;29;1089;-77
2022/11/07 08:50:56;;;;;;;;;;;;;;;21.28;28.26;98391.75;4961119;28;1128;-77
2022/11/07 08:53:21;;;;;;;;;;;;;;;21.33;28.27;98396.97;4960709;28;899;-78
2022/11/07 08:55:47;;;;;;;;;;;;;;;21.67;27.75;98393.06;4976790;28;818;-77
2022/11/07 08:58:13;;;;;;;;;;;;;;;21.21;28.44;98397.56;4960637;28;2074;-78
2022/11/07 09:04:14;;;;;;;;;;;;;;;20.98;28.86;98403.25;4976991;28;701;-78
2022/11/07 09:06:39;;;;;;;;;;;;;;;21.04;28.80;98398.72;4976616;28;865;-78
2022/11/07 09:09:05;;;;;;;;;;;;;;;21.53;28.28;98396.19;4977011;28;752;-77
2022/11/07 09:11:30;;;;;;;;;;;;;;;21.47;28.10;98395.09;4976461;28;905;-77
2022/11/07 09:13:56;;;;;;;;;;;;;;;21.28;28.26;98403.09;4937894;29;883;-78
2022/11/07 09:16:22;;;;;;;;;;;;;;;21.20;28.49;98409.34;4938207;29;764;-77
2022/11/07 09:18:47;;;;;;;;;;;;;;;21.25;28.33;98406.81;4937616;29;1981;-77
2022/11/07 09:21:13;;;;;;;;;;;;;;;21.09;28.55;98403.88;4938078;29;847;-78
2022/11/07 09:23:38;;;;;;;;;;;;;;;21.37;28.39;98407.44;4937840;29;811;-78
2022/11/07 09:26:04;;;;;;;;;;;;;;;21.38;28.34;98411.84;4926569;29;1284;-78
2022/11/07 09:28:30;;;;;;;;;;;;;;;21.55;27.98;98408.69;4930615;29;1402;-79
2022/11/07 09:30:55;;;;;;;;;;;;;;;21.18;28.73;98412.56;4929806;28;1257;-78
2022/11/07 09:33:21;;;;;;;;;;;;;;;21.25;28.46;98412.47;4930184;29;1295;-78
2022/11/07 09:35:47;;;;;;;;;;;;;;;20.93;28.98;98404.53;4946963;28;1207;-78
2022/11/07 09:38:13;;;;;;;;;;;;;;;21.29;28.65;98401.84;4946908;29;1971;-77
2022/11/07 09:40:42;;;;;;;;;;;;;;;21.52;28.15;98392.56;4930738;29;1299;-78
2022/11/07 09:43:10;;;;;;;;;;;;;;;21.47;28.36;98390.22;4940798;29;1338;-78
2022/11/07 09:45:37;;;;;;;;;;;;;;;21.32;28.37;98406.69;4968130;28;1048;-78
2022/11/07 09:48:04;;;;;;;;;;;;;;;21.14;28.60;98397.72;4957731;28;906;-78
2022/11/07 09:50:37;;;;;;;;;;;;;;;21.10;28.64;98394.16;4957767;29;728;-78
2022/11/07 09:53:04;;;;;;;;;;;;;;;21.18;28.52;98389.94;4958041;29;807;-78
2022/11/07 09:55:31;;;;;;;;;;;;;;;21.55;28.29;98388.03;4953664;29;904;-78
2022/11/07 09:57:57;;;;;;;;;;;;;;;21.65;27.88;98389.06;4953466;29;1907;-78
2022/11/07 10:03:57;;;;;;;;;;;;;;;21.07;28.99;98386.50;4956890;29;978;-77
2022/11/07 10:06:28;;;;;;;;;;;;;;;20.59;29.00;98314.25;4956512;29;797;-78
2022/11/07 10:09:12;;;;;;;;;;;;;;;21.13;29.05;98390.44;4941328;29;759;-78
2022/11/07 10:11:45;;;;;;;;;;;;;;;21.37;28.62;98379.13;4956486;29;786;-77
2022/11/07 10:14:22;;;;;;;;;;;;;;;21.36;28.47;98378.31;4956762;29;756;-78
2022/11/07 10:16:51;;;;;;;;;;;;;;;21.01;29.22;98379.75;4924664;29;1116;-77
2022/11/07 10:19:34;;;;;;;;;;;;;;;21.17;28.80;98379.06;4956277;29;1907;-78
2022/11/07 10:22:00;;;;;;;;;;;;;;;21.14;28.75;98377.91;4956412;29;946;-78
2022/11/07 10:24:27;;;;;;;;;;;;;;;21.29;28.79;98370.72;4956376;29;899;-78
2022/11/07 10:26:52;;;;;;;;;;;;;;;21.27;28.92;98370.38;4944066;29;804;-77
2022/11/07 10:29:18;;;;;;;;;;;;;;;21.11;28.78;98375.94;4944126;28;1107;-77
2022/11/07 10:31:49;;;;;;;;;;;;;;;21.33;28.80;98368.66;4908435;29;1423;-78
2022/11/07 10:34:22;;;;;;;;;;;;;;;21.25;28.74;98369.22;4924039;29;1355;-79
2022/11/07 10:36:48;;;;;;;;;;;;;;;20.93;29.04;98362.09;4897974;29;1183;-79
2022/11/07 10:39:14;;;;;;;;;;;;;;;21.52;28.22;98357.78;4907833;29;1914;-78
2022/11/07 10:41:39;;;;;;;;;;;;;;;21.45;28.37;98357.91;4894266;29;1236;-78
2022/11/07 10:44:08;;;;;;;;;;;;;;;21.44;28.36;98350.66;4912790;29;1371;-79
2022/11/07 10:46:36;;;;;;;;;;;;;;;21.03;29.20;98365.97;4911001;29;1291;-78
2022/11/07 10:49:01;;;;;;;;;;;;;;;20.88;29.26;98364.63;4909482;29;1308;-78
2022/11/07 10:51:33;;;;;;;;;;;;;;;21.02;28.99;98358.72;4895860;29;1264;-79
2022/11/07 10:53:59;;;;;;;;;;;;;;;21.37;28.70;98350.81;4896543;29;1340;-78
2022/11/07 10:56:24;;;;;;;;;;;;;;;21.64;27.91;98347.81;4907474;29;1343;-78
2022/11/07 10:58:50;;;;;;;;;;;;;;;21.24;28.36;98348.59;4887081;29;1911;-77
2022/11/07 11:01:15;;;;;;;;;;;;;;;21.02;28.93;98344.56;4895479;29;1826;-78
2022/11/07 11:03:45;;;;;;;;;;;;;;;20.98;29.10;98357.97;4923175;29;1289;-78
2022/11/07 11:06:16;;;;;;;;;;;;;;;21.08;28.74;98345.66;4924573;29;1232;-78
2022/11/07 11:08:42;;;;;;;;;;;;;;;20.93;28.89;98350.00;4974349;28;831;-78
2022/11/07 11:11:14;;;;;;;;;;;;;;;21.25;28.54;98350.19;4979082;28;834;-77
2022/11/07 11:13:40;;;;;;;;;;;;;;;21.44;28.43;98339.34;4978786;28;1306;-78
2022/11/07 11:16:24;;;;;;;;;;;;;;;21.26;28.43;98334.81;4946680;28;1129;-78
2022/11/07 11:18:50;;;;;;;;;;;;;;;21.09;28.66;98335.97;4946551;28;1911;-78
2022/11/07 11:21:15;;;;;;;;;;;;;;;20.89;29.39;98329.47;4971890;28;962;-78
2022/11/07 11:23:42;;;;;;;;;;;;;;;21.06;28.71;98336.81;4960246;29;858;-78
2022/11/07 11:26:08;;;;;;;;;;;;;;;21.26;28.46;98329.16;4962318;28;1175;-78
2022/11/07 11:28:33;;;;;;;;;;;;;;;21.44;28.24;98323.13;4984048;28;1276;-78
2022/11/07 11:31:04;;;;;;;;;;;;;;;21.43;28.15;98326.41;4972238;28;1471;-78
2022/11/07 11:33:36;;;;;;;;;;;;;;;20.96;29.23;98332.16;4968250;28;1264;-78
2022/11/07 11:36:03;;;;;;;;;;;;;;;21.06;28.98;98320.63;4970762;28;1239;-78
2022/11/07 11:38:29;;;;;;;;;;;;;;;21.03;28.68;98320.69;4968323;28;2045;-78
2022/11/07 11:40:56;;;;;;;;;;;;;;;20.89;28.79;98321.00;4958090;29;1256;-78
2022/11/07 11:43:22;;;;;;;;;;;;;;;20.97;29.00;98322.44;4964338;28;1286;-79
2022/11/07 11:46:08;;;;;;;;;;;;;;;21.35;28.59;98319.28;4941465;29;1325;-78
2022/11/07 11:48:37;;;;;;;;;;;;;;;21.58;28.07;98322.06;4967094;28;1216;-79
2022/11/07 11:51:03;;;;;;;;;;;;;;;21.28;28.35;98323.84;4949209;28;1372;-78
2022/11/07 11:53:29;;;;;;;;;;;;;;;20.97;28.84;98316.78;4941592;29;1386;-77
2022/11/07 11:55:56;;;;;;;;;;;;;;;21.12;28.84;98312.44;4965420;28;1270;-78
2022/11/07 11:58:26;;;;;;;;;;;;;;;21.02;29.06;98307.78;4941588;29;1907;-78
2022/11/07 12:00:53;;;;;;;;;;;;;;;21.20;28.60;98313.91;4941645;29;1323;-78
2022/11/07 12:03:33;;;;;;;;;;;;;;;21.32;28.30;98320.97;4952246;28;1314;-78
2022/11/07 12:06:01;;;;;;;;;;;;;;;21.10;28.75;98314.94;4941006;28;1271;-78
2022/11/07 12:08:37;;;;;;;;;;;;;;;21.22;28.45;98316.31;4943730;28;1268;-77
2022/11/07 12:11:10;;;;;;;;;;;;;;;21.26;28.52;98317.81;4948702;28;1418;-77
2022/11/07 12:13:38;;;;;;;;;;;;;;;21.08;28.63;98306.84;4950025;28;1212;-77
2022/11/07 12:16:09;;;;;;;;;;;;;;;21.18;28.70;98313.53;4954322;28;1347;-77
2022/11/07 12:18:47;;;;;;;;;;;;;;;21.33;28.53;98309.22;4966836;28;1970;-78
2022/11/07 12:21:12;;;;;;;;;;;;;;;21.64;27.83;98305.34;4967759;28;1224;-77
2022/11/07 12:23:53;;;;;;;;;;;;;;;21.12;28.59;98306.78;4967548;28;1303;-77
2022/11/07 12:26:23;;;;;;;;;;;;;;;21.10;28.77;98306.44;4951454;28;1196;-77
2022/11/07 12:28:55;;;;;;;;;;;;;;;21.22;28.43;98311.44;4966017;28;1239;-77
2022/11/07 12:31:32;;;;;;;;;;;;;;;21.23;28.65;98301.72;4952172;28;1275;-78
2022/11/07 12:34:04;;;;;;;;;;;;;;;21.57;28.03;98306.31;4951116;28;1389;-77
2022/11/07 12:36:42;;;;;;;;;;;;;;;21.51;27.96;98306.03;4950622;28;1353;-77
2022/11/07 12:39:13;;;;;;;;;;;;;;;21.27;28.38;98302.44;4937092;28;2052;-78
2022/11/07 12:41:42;;;;;;;;;;;;;;;21.18;28.42;98299.38;4982254;28;1356;-77
2022/11/07 12:44:26;;;;;;;;;;;;;;;20.93;28.93;98299.06;4999927;28;1230;-77
2022/11/07 12:46:53;;;;;;;;;;;;;;;21.36;28.22;98304.72;4979520;28;815;-77
2022/11/07 12:49:25;;;;;;;;;;;;;;;21.37;28.08;98300.66;4976774;28;1179;-77
2022/11/07 12:52:09;;;;;;;;;;;;;;;21.40;28.37;98308.28;4968253;28;1327;-77
2022/11/07 12:54:36;;;;;;;;;;;;;;;21.22;28.27;98310.63;4967896;28;1294;-79
2022/11/07 12:57:04;;;;;;;;;;;;;;;21.12;28.62;98306.78;4969130;28;1278;-78
2022/11/07 12:59:30;;;;;;;;;;;;;;;21.07;28.78;98298.81;4982166;28;1903;-78
2022/11/07 13:02:12;;;;;;;;;;;;;;;21.11;28.42;98298.75;4975106;28;1214;-77
2022/11/07 13:04:39;;;;;;;;;;;;;;;21.28;28.36;98303.22;4983183;28;1176;-77
2022/11/07 13:07:07;;;;;;;;;;;;;;;21.33;27.97;98299.94;4975214;28;1311;-77
2022/11/07 13:09:41;;;;;;;;;;;;;;;21.18;28.52;98305.03;4983589;28;1223;-77
2022/11/07 13:12:06;;;;;;;;;;;;;;;21.22;28.50;98305.78;4973463;28;1188;-78
2022/11/07 13:14:32;;;;;;;;;;;;;;;21.11;28.41;98308.03;4965395;28;1360;-79
2022/11/07 13:17:07;;;;;;;;;;;;;;;21.24;28.23;98297.66;4957823;28;736;-77
2022/11/07 13:19:33;;;;;;;;;;;;;;;21.33;28.14;98300.72;4958031;29;1957;-77
2022/11/07 13:22:00;;;;;;;;;;;;;;;21.61;27.77;98297.75;4964991;28;1179;-77
2022/11/07 13:24:25;;;;;;;;;;;;;;;21.22;28.45;98300.13;4977689;28;822;-77
2022/11/07 13:26:51;;;;;;;;;;;;;;;21.15;28.33;98311.59;4977553;28;764;-77
2022/11/07 13:29:22;;;;;;;;;;;;;;;21.04;28.68;98300.47;4977447;28;1303;-77
2022/11/07 13:31:52;;;;;;;;;;;;;;;21.04;28.78;98299.69;4978422;28;732;-77
2022/11/07 13:34:17;;;;;;;;;;;;;;;21.31;28.09;98297.53;4977230;28;1131;-77
2022/11/07 13:36:43;;;;;;;;;;;;;;;21.56;28.14;98299.06;4978281;28;717;-77
2022/11/07 13:39:08;;;;;;;;;;;;;;;21.33;28.33;98300.72;4977110;28;1911;-77